Time;durP1;ratioP1;P1;durP2;ratioP2;P2;SDS_P1;SDS_P2;PMS_P1;PMS_P2;Temp;Humidity;BMP_temperature;BMP_pressure;BME280_temperature;BME280_humidity;BME280_pressure;Samples;Min_cycle;Max_cycle;Signal;HPM_P1;HPM_P2
2021/05/14 00:01:04;;;;;;;7.75;5.47;;;15.50;76.80;;;;;;5034628;28;20083;-63
2021/05/14 00:03:29;;;;;;;6.40;5.07;;;15.50;76.70;;;;;;5031031;28;20053;-63
2021/05/14 00:05:55;;;;;;;6.13;4.82;;;15.60;76.70;;;;;;5035293;28;20068;-63
2021/05/14 00:08:21;;;;;;;6.97;5.20;;;15.60;76.60;;;;;;5035562;28;20465;-63
2021/05/14 00:10:47;;;;;;;6.15;5.10;;;15.60;76.30;;;;;;5034947;28;20029;-63
2021/05/14 00:13:13;;;;;;;5.68;4.47;;;15.60;76.00;;;;;;5036155;28;20108;-63
2021/05/14 00:15:39;;;;;;;7.30;4.93;;;15.60;76.00;;;;;;5032583;28;20083;-63
2021/05/14 00:18:05;;;;;;;5.47;4.53;;;15.60;76.00;;;;;;5032146;28;20074;-63
2021/05/14 00:20:30;;;;;;;7.82;5.35;;;15.60;75.90;;;;;;5034506;28;20022;-63
2021/05/14 00:22:56;;;;;;;7.10;5.05;;;15.60;76.20;;;;;;5034694;28;20052;-63
2021/05/14 00:25:22;;;;;;;7.50;6.03;;;15.60;76.70;;;;;;5035328;28;20029;-63
2021/05/14 00:27:47;;;;;;;6.03;4.80;;;15.60;76.80;;;;;;5034670;28;20410;-63
2021/05/14 00:30:14;;;;;;;7.18;5.15;;;15.60;77.20;;;;;;5032926;28;20025;-63
2021/05/14 00:32:40;;;;;;;6.60;5.60;;;15.60;77.60;;;;;;5032945;28;20025;-63
2021/05/14 00:35:06;;;;;;;7.07;5.68;;;15.60;77.80;;;;;;5033496;28;20036;-63
2021/05/14 00:37:33;;;;;;;6.70;5.68;;;15.60;77.80;;;;;;5030822;28;20033;-63
2021/05/14 00:39:58;;;;;;;5.50;4.97;;;15.60;77.60;;;;;;5030351;28;20033;-63
2021/05/14 00:42:24;;;;;;;6.07;5.20;;;15.60;77.30;;;;;;5030273;28;20028;-63
2021/05/14 00:44:50;;;;;;;5.50;4.68;;;15.60;77.10;;;;;;5034223;28;20057;-63
2021/05/14 00:47:17;;;;;;;7.03;5.55;;;15.60;77.10;;;;;;5030681;28;20029;-63
2021/05/14 00:49:44;;;;;;;7.97;6.18;;;15.60;77.50;;;;;;5030071;28;20037;-63
2021/05/14 00:52:13;;;;;;;8.70;6.35;;;15.60;77.50;;;;;;5035592;28;20025;-63
2021/05/14 00:54:39;;;;;;;6.57;5.50;;;15.60;77.70;;;;;;5028716;28;20517;-63
2021/05/14 00:57:06;;;;;;;6.50;5.38;;;15.60;77.60;;;;;;5031387;28;20029;-63
2021/05/14 00:59:32;;;;;;;5.90;5.03;;;15.60;77.20;;;;;;5034367;28;20109;-63
2021/05/14 01:01:58;;;;;;;6.38;5.32;;;15.60;76.80;;;;;;5033598;28;20108;-63
2021/05/14 01:04:24;;;;;;;6.85;5.40;;;15.60;76.60;;;;;;5034375;28;20025;-63
2021/05/14 01:06:50;;;;;;;7.15;5.18;;;15.60;76.30;;;;;;5030682;28;20041;-63
2021/05/14 01:09:16;;;;;;;6.05;5.05;;;15.60;76.10;;;;;;5016629;28;20025;-63
2021/05/14 01:11:42;;;;;;;7.57;5.13;;;15.60;76.00;;;;;;5032083;28;20541;-63
2021/05/14 01:14:09;;;;;;;9.73;5.72;;;15.60;76.10;;;;;;5034029;28;20112;-63
2021/05/14 01:16:34;;;;;;;7.15;5.50;;;15.60;75.90;;;;;;5033033;28;20020;-63
2021/05/14 01:19:00;;;;;;;7.10;5.50;;;15.50;75.90;;;;;;5032502;28;20473;-63
2021/05/14 01:21:26;;;;;;;6.90;5.75;;;15.60;76.10;;;;;;5034738;28;20500;-63
2021/05/14 01:23:52;;;;;;;7.28;5.82;;;15.60;76.30;;;;;;5033584;28;20026;-63
2021/05/14 01:26:21;;;;;;;8.68;5.90;;;15.60;76.40;;;;;;5034365;28;20025;-63
2021/05/14 01:28:48;;;;;;;9.32;6.35;;;15.50;76.40;;;;;;5026834;28;20029;-63
2021/05/14 01:31:14;;;;;;;7.57;6.53;;;15.50;76.50;;;;;;5031655;28;20493;-63
2021/05/14 01:33:40;;;;;;;10.98;7.78;;;15.60;76.70;;;;;;5031483;28;20056;-63
2021/05/14 01:36:07;;;;;;;10.27;7.70;;;15.60;76.80;;;;;;5033607;28;20033;-63
2021/05/14 01:38:33;;;;;;;11.13;7.55;;;15.60;76.90;;;;;;5030893;28;20034;-63
2021/05/14 01:40:59;;;;;;;12.90;7.90;;;15.60;77.10;;;;;;5034318;28;20025;-63
2021/05/14 01:43:25;;;;;;;13.48;8.63;;;15.60;77.20;;;;;;5031992;28;20025;-63
2021/05/14 01:45:51;;;;;;;11.48;7.13;;;15.50;77.30;;;;;;5030607;28;20093;-63
2021/05/14 01:48:17;;;;;;;12.52;7.50;;;15.50;77.30;;;;;;5032142;28;20079;-63
2021/05/14 01:50:43;;;;;;;11.63;8.75;;;15.60;77.30;;;;;;5029614;28;20029;-63
2021/05/14 01:53:09;;;;;;;13.23;10.15;;;15.50;77.40;;;;;;5032640;28;20017;-63
2021/05/14 01:55:36;;;;;;;11.85;8.35;;;15.50;77.60;;;;;;5034069;28;20053;-63
2021/05/14 01:58:03;;;;;;;19.63;9.63;;;15.50;77.50;;;;;;5033475;28;20026;-63
2021/05/14 02:00:28;;;;;;;11.70;8.30;;;15.50;77.90;;;;;;5032962;28;20116;-63
2021/05/14 02:02:54;;;;;;;10.95;8.43;;;15.50;77.60;;;;;;5032934;28;20108;-63
2021/05/14 02:05:20;;;;;;;10.35;8.57;;;15.40;77.60;;;;;;5031911;28;20041;-63
2021/05/14 02:07:45;;;;;;;10.90;8.15;;;15.40;77.60;;;;;;5031710;28;20025;-63
2021/05/14 02:10:11;;;;;;;11.48;9.05;;;15.40;77.80;;;;;;5031922;28;20033;-63
2021/05/14 02:12:37;;;;;;;12.05;8.43;;;15.40;78.10;;;;;;5032595;28;20037;-63
2021/05/14 02:15:05;;;;;;;10.18;7.90;;;15.40;78.00;;;;;;5032468;28;20025;-63
2021/05/14 02:17:31;;;;;;;9.00;7.38;;;15.40;77.80;;;;;;5032612;28;20022;-63
2021/05/14 02:19:56;;;;;;;9.55;7.55;;;15.40;77.60;;;;;;5029524;28;20030;-63
2021/05/14 02:22:22;;;;;;;9.13;7.07;;;15.40;78.50;;;;;;5029720;28;20496;-63
2021/05/14 02:24:49;;;;;;;11.70;8.25;;;15.40;78.00;;;;;;5030607;28;20435;-63
2021/05/14 02:27:17;;;;;;;12.35;7.18;;;15.40;78.40;;;;;;5032513;28;20048;-63
2021/05/14 02:29:43;;;;;;;9.27;6.95;;;15.40;78.40;;;;;;5031925;28;20370;-63
2021/05/14 02:32:09;;;;;;;9.32;7.45;;;15.40;78.50;;;;;;5031336;28;20022;-63
2021/05/14 02:34:35;;;;;;;8.43;7.13;;;15.40;78.60;;;;;;5028439;28;20069;-63
2021/05/14 02:37:00;;;;;;;9.18;6.90;;;15.40;78.90;;;;;;5028820;28;20083;-63
2021/05/14 02:39:26;;;;;;;10.98;7.90;;;15.40;79.00;;;;;;5032408;28;20056;-63
2021/05/14 02:41:52;;;;;;;10.90;8.30;;;15.40;79.30;;;;;;5030726;28;20472;-63
2021/05/14 02:44:18;;;;;;;9.20;7.20;;;15.50;79.70;;;;;;5033171;28;20029;-63
2021/05/14 02:46:44;;;;;;;9.27;6.72;;;15.50;79.80;;;;;;5031697;28;20025;-63
2021/05/14 02:49:10;;;;;;;9.52;7.10;;;15.50;79.90;;;;;;5029346;28;20036;-63
2021/05/14 02:51:36;;;;;;;9.05;6.75;;;15.50;80.00;;;;;;5031245;28;20588;-63
2021/05/14 02:54:03;;;;;;;6.97;5.53;;;15.60;80.00;;;;;;5028607;28;20128;-63
2021/05/14 02:56:30;;;;;;;7.25;5.72;;;15.60;80.00;;;;;;5030965;28;20048;-63
2021/05/14 02:58:55;;;;;;;7.60;5.75;;;15.70;79.90;;;;;;5031498;28;20080;-63
2021/05/14 03:01:21;;;;;;;8.48;5.55;;;15.70;80.00;;;;;;5029241;28;20028;-63
2021/05/14 03:03:46;;;;;;;6.13;4.35;;;15.70;79.70;;;;;;5032660;28;20433;-63
2021/05/14 03:06:12;;;;;;;5.88;4.40;;;15.80;79.60;;;;;;5030208;28;20113;-63
2021/05/14 03:08:38;;;;;;;7.25;4.78;;;15.90;79.60;;;;;;5031407;28;20389;-63
2021/05/14 03:11:04;;;;;;;6.50;5.32;;;15.90;79.50;;;;;;5031446;28;20036;-63
2021/05/14 03:13:30;;;;;;;7.28;5.40;;;15.90;79.60;;;;;;5031704;28;20029;-63
2021/05/14 03:15:56;;;;;;;8.18;4.57;;;15.90;79.40;;;;;;5026502;28;20021;-63
2021/05/14 03:18:21;;;;;;;5.53;4.63;;;15.90;79.30;;;;;;5030886;28;20025;-63
2021/05/14 03:20:47;;;;;;;5.65;4.72;;;15.90;79.30;;;;;;5029533;28;20025;-63
2021/05/14 03:23:13;;;;;;;5.43;4.65;;;15.90;79.10;;;;;;5029797;28;20068;-63
2021/05/14 03:25:39;;;;;;;7.57;4.38;;;15.80;79.00;;;;;;5031761;28;20034;-63
2021/05/14 03:28:04;;;;;;;6.07;4.60;;;15.80;78.70;;;;;;5031432;28;20029;-63
2021/05/14 03:30:30;;;;;;;5.70;4.25;;;15.80;78.50;;;;;;5030565;28;20026;-63
2021/05/14 03:32:56;;;;;;;7.63;4.10;;;15.80;78.30;;;;;;5030368;28;20048;-63
2021/05/14 03:35:22;;;;;;;5.57;4.00;;;15.80;78.00;;;;;;5031369;28;20025;-63
2021/05/14 03:37:48;;;;;;;5.43;4.28;;;15.80;78.10;;;;;;5031346;28;20354;-63
2021/05/14 03:40:36;;;;;;;5.55;4.07;;;15.80;78.00;;;;;;5031408;28;20037;-63
2021/05/14 03:43:01;;;;;;;6.22;4.00;;;15.80;77.90;;;;;;5031883;28;20041;-63
2021/05/14 03:45:28;;;;;;;5.53;3.90;;;15.80;77.40;;;;;;5024282;28;20061;-63
2021/05/14 03:47:55;;;;;;;4.80;4.03;;;15.80;76.90;;;;;;5031578;28;20044;-63
2021/05/14 03:50:21;;;;;;;5.50;3.67;;;15.80;76.70;;;;;;5030164;28;20038;-63
2021/05/14 03:52:47;;;;;;;5.78;4.45;;;15.80;76.40;;;;;;5032176;28;20384;-63
2021/05/14 03:55:13;;;;;;;6.07;4.10;;;15.80;76.60;;;;;;5028513;28;20044;-63
2021/05/14 03:57:39;;;;;;;6.10;4.07;;;15.80;76.70;;;;;;5031033;28;20049;-63
2021/05/14 04:00:06;;;;;;;6.55;3.88;;;15.80;76.90;;;;;;5028304;28;20072;-63
2021/05/14 04:02:32;;;;;;;4.63;3.83;;;15.80;76.90;;;;;;5031612;28;20391;-63
2021/05/14 04:04:59;;;;;;;6.10;4.20;;;15.80;77.60;;;;;;5030472;28;20087;-63
2021/05/14 04:07:25;;;;;;;5.57;4.10;;;15.90;77.20;;;;;;5031234;28;20026;-63
2021/05/14 04:15:08;;;;;;;3.80;3.40;;;16.10;77.30;;;;;;5025050;28;20029;-63
2021/05/14 04:17:34;;;;;;;5.13;3.85;;;16.20;76.50;;;;;;5028495;28;20021;-63
2021/05/14 04:20:00;;;;;;;6.45;4.00;;;16.30;76.40;;;;;;5026276;28;20037;-63
2021/05/14 04:22:29;;;;;;;6.00;3.88;;;16.30;76.10;;;;;;5027273;28;20481;-63
2021/05/14 04:24:55;;;;;;;5.38;3.78;;;16.40;76.30;;;;;;5029289;28;20381;-63
2021/05/14 04:27:21;;;;;;;3.63;3.20;;;16.50;76.30;;;;;;5022975;28;20041;-63
2021/05/14 04:29:47;;;;;;;4.20;3.58;;;16.70;75.50;;;;;;5029377;28;20034;-63
2021/05/14 04:32:13;;;;;;;4.38;3.45;;;17.00;75.10;;;;;;5028570;28;20029;-63
2021/05/14 04:34:39;;;;;;;5.63;3.88;;;17.20;73.80;;;;;;5026913;28;20416;-63
2021/05/14 04:37:07;;;;;;;4.43;3.30;;;17.60;74.20;;;;;;5023477;28;20053;-63
2021/05/14 04:39:32;;;;;;;4.03;3.63;;;18.20;73.20;;;;;;5030707;28;20042;-64
2021/05/14 04:41:59;;;;;;;4.55;3.60;;;19.10;71.40;;;;;;5029564;28;20052;-64
2021/05/14 04:44:24;;;;;;;3.45;3.05;;;19.90;68.80;;;;;;5030146;28;20033;-64
2021/05/14 04:46:52;;;;;;;4.80;3.38;;;20.40;65.50;;;;;;5032878;28;20030;-64
2021/05/14 04:49:17;;;;;;;4.10;3.42;;;20.50;63.30;;;;;;5032670;28;20065;-64
2021/05/14 04:51:43;;;;;;;3.88;3.30;;;20.40;63.00;;;;;;5032101;28;20072;-63
2021/05/14 04:54:09;;;;;;;3.92;3.33;;;20.20;62.70;;;;;;5031854;28;20013;-64
2021/05/14 04:56:35;;;;;;;3.22;2.90;;;19.90;63.40;;;;;;5030683;28;20045;-64
2021/05/14 04:59:00;;;;;;;3.95;3.05;;;19.80;63.80;;;;;;5031001;28;20025;-63
2021/05/14 05:01:26;;;;;;;3.75;3.30;;;20.00;65.40;;;;;;5030652;28;20029;-64
2021/05/14 05:03:54;;;;;;;3.75;2.95;;;20.60;65.10;;;;;;5029806;28;20025;-64
2021/05/14 05:06:20;;;;;;;3.60;3.00;;;21.40;63.40;;;;;;5030304;28;20025;-64
2021/05/14 05:08:46;;;;;;;2.88;2.67;;;22.10;61.60;;;;;;5033495;28;20397;-64
2021/05/14 05:11:12;;;;;;;3.22;2.90;;;22.70;60.20;;;;;;5029416;28;20026;-64
2021/05/14 05:13:38;;;;;;;4.55;3.08;;;23.00;59.50;;;;;;5029064;28;20040;-64
2021/05/14 05:16:04;;;;;;;3.95;3.03;;;23.30;57.40;;;;;;5030578;28;20143;-64
2021/05/14 05:18:30;;;;;;;3.88;3.08;;;23.50;56.10;;;;;;5029850;28;20439;-64
2021/05/14 05:20:55;;;;;;;4.82;3.33;;;23.50;55.70;;;;;;5030967;28;20102;-64
2021/05/14 05:23:21;;;;;;;3.53;3.08;;;23.50;54.90;;;;;;5026997;28;20362;-64
2021/05/14 05:25:47;;;;;;;3.78;3.08;;;23.40;54.90;;;;;;5024452;28;20467;-64
2021/05/14 05:28:13;;;;;;;4.03;3.20;;;23.00;54.90;;;;;;5026366;28;20222;-56
2021/05/14 05:30:40;;;;;;;5.00;3.40;;;22.60;56.00;;;;;;5029263;28;20025;-60
2021/05/14 05:33:06;;;;;;;4.03;3.25;;;22.20;56.70;;;;;;5028309;28;20037;-56
2021/05/14 05:35:32;;;;;;;4.72;3.47;;;21.70;57.50;;;;;;5030092;28;20034;-59
2021/05/14 05:37:57;;;;;;;4.40;3.55;;;21.20;58.30;;;;;;5028359;28;20309;-58
2021/05/14 05:40:23;;;;;;;4.10;3.45;;;20.80;59.30;;;;;;5029339;28;20033;-56
2021/05/14 05:42:49;;;;;;;4.70;3.63;;;20.40;60.00;;;;;;5032651;28;20516;-57
2021/05/14 05:45:15;;;;;;;4.53;3.63;;;20.00;60.70;;;;;;5025623;28;20065;-59
2021/05/14 05:47:40;;;;;;;4.93;3.88;;;19.60;61.70;;;;;;5023126;28;20053;-59
2021/05/14 05:50:07;;;;;;;7.20;4.25;;;19.30;62.80;;;;;;5027855;28;20640;-61
2021/05/14 05:52:33;;;;;;;7.40;4.90;;;19.10;63.50;;;;;;5024336;28;20025;-62
2021/05/14 05:54:59;;;;;;;7.45;4.07;;;19.00;64.30;;;;;;5017447;28;20045;-62
2021/05/14 05:57:24;;;;;;;5.32;4.00;;;18.90;64.80;;;;;;5019465;28;20040;-61
2021/05/14 05:59:50;;;;;;;4.03;3.55;;;18.90;65.20;;;;;;5027508;28;20029;-61
2021/05/14 06:02:16;;;;;;;4.85;3.55;;;18.80;65.50;;;;;;5023855;28;20026;-61
2021/05/14 06:04:42;;;;;;;4.45;3.75;;;18.70;65.90;;;;;;5023632;28;20034;-61
2021/05/14 06:07:08;;;;;;;4.55;3.78;;;18.70;66.30;;;;;;5024721;28;20048;-61
2021/05/14 06:09:33;;;;;;;4.22;3.83;;;18.70;66.70;;;;;;5020905;28;20029;-61
2021/05/14 06:12:00;;;;;;;4.78;4.05;;;18.70;66.80;;;;;;5022714;28;20037;-61
2021/05/14 06:14:26;;;;;;;5.97;4.15;;;18.70;66.60;;;;;;5021565;28;20029;-61
2021/05/14 06:16:51;;;;;;;7.15;4.55;;;18.70;66.60;;;;;;5018436;28;21735;-62
2021/05/14 06:19:23;;;;;;;6.90;4.50;;;18.70;66.70;;;;;;5020327;28;20117;-61
2021/05/14 06:21:49;;;;;;;4.78;4.00;;;18.70;67.70;;;;;;5015806;28;20029;-62
2021/05/14 06:24:17;;;;;;;6.85;4.30;;;18.60;67.10;;;;;;5020965;28;20041;-63
2021/05/14 06:26:43;;;;;;;5.75;4.30;;;18.50;67.50;;;;;;5019259;28;20068;-61
2021/05/14 06:29:09;;;;;;;6.20;4.60;;;18.40;67.70;;;;;;5017070;28;20120;-62
2021/05/14 06:31:35;;;;;;;5.43;3.97;;;18.40;68.00;;;;;;5018333;28;20044;-64
2021/05/14 06:34:01;;;;;;;5.90;4.35;;;18.30;68.30;;;;;;5017972;28;20034;-61
2021/05/14 06:36:26;;;;;;;6.20;5.05;;;18.20;68.80;;;;;;5018365;28;20040;-63
2021/05/14 06:38:52;;;;;;;5.35;4.55;;;18.10;68.90;;;;;;5022819;28;20033;-61
2021/05/14 06:41:18;;;;;;;8.32;4.75;;;18.10;69.10;;;;;;5017800;28;20477;-61
2021/05/14 06:43:43;;;;;;;6.40;4.75;;;18.00;69.60;;;;;;5017251;28;20037;-62
2021/05/14 06:46:09;;;;;;;7.55;5.38;;;18.00;69.80;;;;;;5014921;28;20033;-60
2021/05/14 06:48:35;;;;;;;7.57;5.25;;;18.00;69.90;;;;;;5021239;28;20501;-61
2021/05/14 06:51:01;;;;;;;7.32;5.43;;;18.00;70.20;;;;;;5019795;28;20052;-61
2021/05/14 06:53:27;;;;;;;7.13;4.93;;;18.00;70.20;;;;;;5018456;28;20021;-63
2021/05/14 06:55:53;;;;;;;6.38;5.40;;;18.00;70.10;;;;;;5023163;28;20076;-60
2021/05/14 06:58:19;;;;;;;6.20;4.68;;;18.10;70.10;;;;;;5015567;28;20037;-61
2021/05/14 07:00:45;;;;;;;5.60;4.38;;;18.10;69.90;;;;;;5017344;28;20033;-60
2021/05/14 07:03:11;;;;;;;6.53;4.85;;;18.10;70.00;;;;;;5020348;28;20437;-62
2021/05/14 07:05:36;;;;;;;6.47;5.65;;;18.10;70.30;;;;;;5020005;28;20144;-59
2021/05/14 07:08:02;;;;;;;7.68;6.18;;;18.10;70.80;;;;;;5019324;28;20030;-58
2021/05/14 07:10:29;;;;;;;6.30;5.55;;;18.20;70.80;;;;;;5020839;28;21742;-61
2021/05/14 07:12:55;;;;;;;6.80;5.65;;;18.30;70.60;;;;;;5019272;28;20033;-64
2021/05/14 07:15:21;;;;;;;7.65;5.28;;;18.40;70.80;;;;;;5021808;28;20083;-59
2021/05/14 07:17:48;;;;;;;6.38;4.80;;;18.50;70.60;;;;;;5019627;28;20520;-62
2021/05/14 07:20:14;;;;;;;9.65;5.32;;;18.60;70.60;;;;;;5015934;28;20123;-62
2021/05/14 07:22:40;;;;;;;6.00;4.93;;;18.70;70.00;;;;;;5015137;28;20037;-62
2021/05/14 07:25:07;;;;;;;9.07;6.10;;;18.80;69.80;;;;;;5017558;28;20040;-64
2021/05/14 07:27:32;;;;;;;7.22;5.82;;;18.80;69.40;;;;;;5014588;28;20038;-62
2021/05/14 07:29:58;;;;;;;7.03;5.30;;;18.90;69.60;;;;;;5014821;28;20041;-60
2021/05/14 07:32:24;;;;;;;6.78;5.00;;;18.90;69.60;;;;;;5012392;28;20548;-62
2021/05/14 07:34:52;;;;;;;6.55;5.35;;;19.00;69.20;;;;;;5005864;28;20030;-62
2021/05/14 07:37:18;;;;;;;6.80;5.75;;;19.00;68.80;;;;;;5007012;28;20033;-64
2021/05/14 07:39:44;;;;;;;9.02;5.95;;;18.90;68.60;;;;;;5009542;28;20103;-61
2021/05/14 07:42:09;;;;;;;7.20;5.65;;;18.80;68.70;;;;;;5014063;28;20042;-61
2021/05/14 07:44:35;;;;;;;6.47;5.00;;;18.80;69.40;;;;;;5011078;28;20156;-62
2021/05/14 07:47:01;;;;;;;7.05;5.88;;;18.70;69.90;;;;;;5007820;28;20038;-60
2021/05/14 07:49:27;;;;;;;8.75;6.47;;;18.70;69.70;;;;;;5000503;28;20029;-61
2021/05/14 07:51:52;;;;;;;8.63;6.47;;;18.70;69.60;;;;;;5013516;28;20092;-63
2021/05/14 07:54:18;;;;;;;8.82;5.95;;;18.60;69.70;;;;;;5010474;28;20400;-63
2021/05/14 07:56:44;;;;;;;7.80;6.18;;;18.60;69.90;;;;;;5009623;28;20293;-63
2021/05/14 07:59:11;;;;;;;8.27;6.38;;;18.60;70.10;;;;;;5010230;28;20034;-61
2021/05/14 08:01:37;;;;;;;8.95;6.88;;;18.60;70.80;;;;;;4994366;28;20053;-64
2021/05/14 08:04:04;;;;;;;8.48;6.47;;;18.70;71.00;;;;;;5013704;28;20595;-60
2021/05/14 08:06:30;;;;;;;7.97;6.70;;;18.90;70.70;;;;;;5017031;28;20076;-62
2021/05/14 08:08:58;;;;;;;9.35;7.28;;;19.00;69.80;;;;;;5015888;28;20141;-62
2021/05/14 08:11:23;;;;;;;7.82;6.82;;;19.00;69.80;;;;;;5012068;28;21028;-63
2021/05/14 08:13:49;;;;;;;8.02;6.85;;;19.10;69.90;;;;;;5010143;28;20057;-61
2021/05/14 08:16:15;;;;;;;6.47;5.75;;;19.20;70.20;;;;;;5009719;28;20429;-60
2021/05/14 08:18:40;;;;;;;7.80;5.95;;;19.30;70.50;;;;;;5007933;28;20021;-64
2021/05/14 08:21:06;;;;;;;7.68;6.40;;;19.30;69.80;;;;;;5010280;28;20063;-62
2021/05/14 08:23:32;;;;;;;8.50;6.15;;;19.40;70.10;;;;;;5018109;28;20034;-63
2021/05/14 08:25:57;;;;;;;7.35;5.95;;;19.40;69.30;;;;;;5017165;28;20044;-61
2021/05/14 08:28:26;;;;;;;7.60;5.72;;;19.40;69.00;;;;;;5015248;28;20033;-63
2021/05/14 08:30:52;;;;;;;7.65;5.57;;;19.50;69.10;;;;;;5017739;28;20038;-59
2021/05/14 08:33:18;;;;;;;8.00;6.35;;;19.50;69.10;;;;;;5017412;28;20037;-62
2021/05/14 08:35:44;;;;;;;7.45;6.47;;;19.60;69.30;;;;;;5017764;28;20095;-62
2021/05/14 08:38:10;;;;;;;7.00;5.53;;;19.60;69.10;;;;;;5012201;28;20033;-64
2021/05/14 08:40:38;;;;;;;6.97;5.90;;;19.70;69.00;;;;;;5016935;28;20030;-61
2021/05/14 08:43:04;;;;;;;6.72;5.90;;;19.70;69.60;;;;;;5014326;28;20041;-61
2021/05/14 08:45:30;;;;;;;7.88;5.93;;;19.80;69.30;;;;;;5015304;28;20029;-60
2021/05/14 08:47:57;;;;;;;7.95;6.38;;;19.80;69.00;;;;;;5016222;28;20437;-63
2021/05/14 08:50:26;;;;;;;9.18;6.22;;;19.80;68.80;;;;;;5009882;28;20033;-60
2021/05/14 08:52:52;;;;;;;7.88;6.40;;;19.80;68.30;;;;;;5014975;28;20029;-62
2021/05/14 08:55:21;;;;;;;9.85;7.00;;;19.90;68.20;;;;;;5020462;28;20060;-62
2021/05/14 08:57:46;;;;;;;10.18;6.47;;;19.90;67.70;;;;;;5023023;28;20664;-61
2021/05/14 09:00:13;;;;;;;10.38;6.70;;;19.90;66.90;;;;;;5018905;28;20060;-61
2021/05/14 09:02:38;;;;;;;6.68;5.55;;;20.00;66.90;;;;;;5012216;28;20034;-63
2021/05/14 09:05:20;;;;;;;9.93;6.43;;;20.00;67.00;;;;;;5013181;28;20087;-62
2021/05/14 09:07:46;;;;;;;9.20;6.82;;;20.10;66.60;;;;;;5011849;28;20038;-62
2021/05/14 09:10:12;;;;;;;5.97;5.22;;;20.10;66.60;;;;;;5016643;28;20057;-62
2021/05/14 09:12:39;;;;;;;6.55;5.75;;;20.10;66.40;;;;;;4997712;28;20038;-63
2021/05/14 09:15:21;;;;;;;9.13;6.03;;;20.10;65.70;;;;;;5008234;28;20060;-61
2021/05/14 09:18:01;;;;;;;7.18;6.25;;;20.10;65.60;;;;;;5009963;28;20030;-61
2021/05/14 09:20:50;;;;;;;9.48;5.90;;;20.00;66.00;;;;;;5012724;28;20131;-60
2021/05/14 09:23:16;;;;;;;8.07;6.18;;;20.00;65.90;;;;;;5009772;28;20065;-61
2021/05/14 09:26:06;;;;;;;7.05;6.30;;;20.00;66.00;;;;;;5011503;28;20121;-63
2021/05/14 09:28:34;;;;;;;8.52;5.82;;;19.90;66.30;;;;;;5012722;28;20120;-61
2021/05/14 09:31:03;;;;;;;7.13;6.00;;;19.90;66.60;;;;;;5013192;28;20033;-57
2021/05/14 09:33:29;;;;;;;9.63;5.90;;;19.80;66.70;;;;;;5012546;28;20085;-59
2021/05/14 09:35:59;;;;;;;12.55;6.25;;;19.80;66.50;;;;;;5019915;28;20032;-59
2021/05/14 09:38:25;;;;;;;6.70;5.33;;;19.80;66.60;;;;;;5015966;28;20658;-65
2021/05/14 09:40:51;;;;;;;9.18;6.35;;;19.80;66.80;;;;;;5019095;28;20061;-59
2021/05/14 09:43:18;;;;;;;8.32;6.03;;;19.80;66.50;;;;;;5016625;28;20156;-64
2021/05/14 09:45:44;;;;;;;8.13;5.53;;;19.80;66.40;;;;;;5013738;28;20091;-61
2021/05/14 09:48:18;;;;;;;6.47;5.65;;;19.80;65.80;;;;;;5018995;28;20041;-63
2021/05/14 09:50:47;;;;;;;5.95;4.68;;;19.80;65.10;;;;;;5011994;28;20156;-62
2021/05/14 09:53:21;;;;;;;7.10;5.65;;;19.80;65.20;;;;;;5015535;28;20042;-62
2021/05/14 09:56:02;;;;;;;7.68;5.55;;;19.70;65.10;;;;;;5017009;28;20038;-63
2021/05/14 09:58:30;;;;;;;7.22;5.70;;;19.70;65.10;;;;;;5019849;28;20033;-62
2021/05/14 10:00:56;;;;;;;8.20;5.82;;;19.70;66.10;;;;;;5016477;28;20044;-62
2021/05/14 10:03:25;;;;;;;6.90;4.93;;;19.70;66.00;;;;;;5019920;28;20033;-63
2021/05/14 10:05:52;;;;;;;6.25;5.25;;;19.80;65.60;;;;;;5011494;28;20030;-61
2021/05/14 10:08:23;;;;;;;6.40;5.47;;;19.80;65.10;;;;;;5012979;28;20026;-62
2021/05/14 10:10:51;;;;;;;8.52;5.88;;;19.80;65.40;;;;;;5017522;28;20045;-62
2021/05/14 10:13:17;;;;;;;6.55;4.85;;;19.80;65.30;;;;;;5017258;28;20104;-64
2021/05/14 10:15:42;;;;;;;6.07;4.80;;;19.80;64.80;;;;;;5011422;28;20108;-62
2021/05/14 10:18:18;;;;;;;7.40;5.00;;;19.80;64.20;;;;;;5012381;28;20087;-62
2021/05/14 10:20:46;;;;;;;6.80;4.53;;;19.80;63.80;;;;;;5013823;28;20072;-63
2021/05/14 10:23:12;;;;;;;6.00;4.32;;;19.80;63.50;;;;;;5014462;28;20497;-63
2021/05/14 10:25:38;;;;;;;5.18;4.25;;;19.80;63.60;;;;;;5017059;28;20033;-64
2021/05/14 10:28:24;;;;;;;5.82;4.43;;;19.80;63.40;;;;;;5016309;28;20060;-63
2021/05/14 10:31:04;;;;;;;6.55;3.97;;;19.80;63.50;;;;;;5012790;28;20040;-62
2021/05/14 10:33:39;;;;;;;6.33;3.50;;;19.90;63.10;;;;;;5017518;28;20025;-63
2021/05/14 10:36:20;;;;;;;6.82;3.80;;;19.90;62.30;;;;;;5013280;28;20034;-63
2021/05/14 10:39:05;;;;;;;7.00;3.40;;;20.00;61.60;;;;;;5017179;28;20030;-64
2021/05/14 10:41:33;;;;;;;7.05;3.90;;;20.10;61.10;;;;;;5014508;28;20034;-63
2021/05/14 10:44:03;;;;;;;5.93;4.20;;;20.20;61.10;;;;;;5019562;28;20084;-63
2021/05/14 10:46:29;;;;;;;6.07;4.13;;;20.30;61.40;;;;;;5015024;28;20116;-63
2021/05/14 10:49:14;;;;;;;7.10;3.97;;;20.40;62.00;;;;;;5010076;28;20029;-65
2021/05/14 10:52:01;;;;;;;5.63;4.63;;;20.50;62.00;;;;;;5010564;28;20064;-63
2021/05/14 10:54:50;;;;;;;6.03;4.43;;;20.60;62.20;;;;;;5012451;28;20362;-63
2021/05/14 10:57:40;;;;;;;5.32;4.38;;;20.70;62.10;;;;;;5000635;28;20084;-64
2021/05/14 11:00:29;;;;;;;7.78;4.40;;;20.70;61.80;;;;;;5017620;28;20492;-63
2021/05/14 11:03:10;;;;;;;5.75;4.05;;;20.80;61.70;;;;;;5013792;28;20156;-63
2021/05/14 11:05:43;;;;;;;5.20;4.20;;;20.80;61.50;;;;;;5009864;28;20516;-63
2021/05/14 11:08:30;;;;;;;7.47;4.03;;;20.80;61.30;;;;;;5015507;28;20030;-61
2021/05/14 11:11:00;;;;;;;7.18;4.35;;;20.80;61.10;;;;;;4996607;28;20049;-61
2021/05/14 11:13:53;;;;;;;5.93;4.13;;;20.80;61.40;;;;;;5015542;28;20371;-62
2021/05/14 11:16:36;;;;;;;7.32;4.70;;;20.90;61.40;;;;;;4994111;28;20279;-63
2021/05/14 11:19:28;;;;;;;6.05;4.32;;;20.90;61.70;;;;;;5009540;28;21089;-63
2021/05/14 11:21:57;;;;;;;5.15;4.60;;;21.00;61.70;;;;;;5009414;28;20666;-61
2021/05/14 11:24:30;;;;;;;5.43;4.22;;;21.00;61.10;;;;;;5015222;28;20504;-62
2021/05/14 11:27:04;;;;;;;8.50;5.18;;;21.10;61.00;;;;;;5016649;28;20032;-62
2021/05/14 11:29:35;;;;;;;7.80;4.85;;;21.10;60.80;;;;;;5008419;28;20037;-61
2021/05/14 11:32:13;;;;;;;;;;;21.10;60.60;;;;;;5014068;28;20073;-62
2021/05/14 11:35:03;;;;;;;6.97;4.53;;;21.00;61.10;;;;;;5007374;28;19924;-62
2021/05/14 11:37:37;;;;;;;7.15;4.50;;;21.10;60.80;;;;;;5009456;28;20045;-60
2021/05/14 11:40:07;;;;;;;5.82;4.72;;;21.20;60.20;;;;;;5010932;28;20029;-59
2021/05/14 11:42:38;;;;;;;5.60;4.75;;;21.20;60.20;;;;;;5010141;28;20129;-61
2021/05/14 11:45:07;;;;;;;9.23;4.47;;;21.20;60.30;;;;;;5011683;28;20029;-62
2021/05/14 11:47:33;;;;;;;7.22;4.60;;;21.20;60.60;;;;;;5008990;28;20045;-62
2021/05/14 11:49:59;;;;;;;6.22;5.18;;;21.20;60.20;;;;;;5011731;28;20426;-63
2021/05/14 11:52:37;;;;;;;8.05;5.00;;;21.20;61.20;;;;;;5015404;28;20080;-63
2021/05/14 11:55:13;;;;;;;7.68;5.32;;;21.10;60.30;;;;;;5016590;28;20171;-63
2021/05/14 11:57:40;;;;;;;7.57;4.93;;;21.10;60.70;;;;;;5016085;28;20474;-64
2021/05/14 12:00:09;;;;;;;6.55;4.72;;;21.00;60.90;;;;;;5017694;28;20598;-63
2021/05/14 12:02:39;;;;;;;7.15;4.57;;;21.00;61.00;;;;;;5012184;28;20055;-64
2021/05/14 12:05:08;;;;;;;6.93;4.68;;;21.00;61.40;;;;;;5013486;28;20026;-63
2021/05/14 12:07:34;;;;;;;5.43;4.18;;;21.00;61.50;;;;;;5013735;28;20069;-64
2021/05/14 12:10:02;;;;;;;10.65;5.32;;;21.00;61.60;;;;;;5016125;28;20037;-65
2021/05/14 12:12:28;;;;;;;4.95;3.50;;;21.00;61.80;;;;;;5015312;28;20105;-65
2021/05/14 12:15:15;;;;;;;6.70;3.13;;;21.10;60.70;;;;;;5015854;28;20036;-65
2021/05/14 12:17:43;;;;;;;5.80;3.58;;;21.20;59.80;;;;;;5013770;28;20036;-64
2021/05/14 12:20:33;;;;;;;5.20;2.95;;;21.20;59.00;;;;;;5013304;28;20048;-64
2021/05/14 12:23:04;;;;;;;4.20;3.10;;;21.30;58.10;;;;;;5015937;28;20034;-63
2021/05/14 12:25:44;;;;;;;5.20;2.67;;;21.50;57.90;;;;;;5012206;28;20039;-65
2021/05/14 12:28:36;;;;;;;4.70;3.00;;;21.60;57.70;;;;;;5016383;28;20044;-64
2021/05/14 12:31:08;;;;;;;6.10;3.22;;;21.70;57.50;;;;;;5012787;28;20060;-64
2021/05/14 12:33:49;;;;;;;5.63;3.40;;;21.80;57.40;;;;;;5016819;28;20408;-64
2021/05/14 12:36:22;;;;;;;6.88;2.88;;;21.90;57.10;;;;;;5017384;28;20476;-63
2021/05/14 12:38:49;;;;;;;6.93;3.30;;;21.90;56.50;;;;;;5019276;28;20026;-65
2021/05/14 12:41:35;;;;;;;4.65;3.20;;;22.00;56.20;;;;;;5013977;28;20043;-64
2021/05/14 12:44:13;;;;;;;3.50;2.63;;;22.00;55.80;;;;;;5014511;28;20028;-62
2021/05/14 12:47:07;;;;;;;5.28;3.00;;;22.00;55.50;;;;;;5017675;28;20030;-65
2021/05/14 12:49:40;;;;;;;4.07;2.47;;;22.10;55.30;;;;;;5015323;28;20107;-63
2021/05/14 12:52:19;;;;;;;4.70;2.90;;;22.10;55.10;;;;;;5015006;28;20263;-64
2021/05/14 12:54:55;;;;;;;4.90;2.78;;;22.10;54.40;;;;;;5014721;28;20131;-63
2021/05/14 12:57:31;;;;;;;5.03;3.08;;;22.20;53.90;;;;;;5016378;28;20079;-64